sensor_id;sensor_type;location;lat;lon;timestamp;temperature;humidity
13880;DHT22;7010;48.200;16.332;2022-11-20T00:01:32;2.20;99.90
13880;DHT22;7010;48.200;16.332;2022-11-20T00:04:00;2.30;99.90
13880;DHT22;7010;48.200;16.332;2022-11-20T00:06:29;2.30;99.90
13880;DHT22;7010;48.200;16.332;2022-11-20T00:09:00;2.30;99.90
13880;DHT22;7010;48.200;16.332;2022-11-20T00:11:29;2.30;99.90
13880;DHT22;7010;48.200;16.332;2022-11-20T00:13:59;2.30;99.90
13880;DHT22;7010;48.200;16.332;2022-11-20T00:16:30;2.30;99.90
13880;DHT22;7010;48.200;16.332;2022-11-20T00:18:59;2.40;99.90
13880;DHT22;7010;48.200;16.332;2022-11-20T00:21:28;2.40;99.90
13880;DHT22;7010;48.200;16.332;2022-11-20T00:23:59;2.30;99.90
13880;DHT22;7010;48.200;16.332;2022-11-20T00:26:28;2.30;99.90
13880;DHT22;7010;48.200;16.332;2022-11-20T00:28:59;2.30;99.90
13880;DHT22;7010;48.200;16.332;2022-11-20T00:31:29;2.30;99.90
13880;DHT22;7010;48.200;16.332;2022-11-20T00:33:59;2.20;99.90
13880;DHT22;7010;48.200;16.332;2022-11-20T00:36:31;2.20;99.90
13880;DHT22;7010;48.200;16.332;2022-11-20T00:39:01;2.20;99.90
13880;DHT22;7010;48.200;16.332;2022-11-20T00:41:30;2.30;99.90
13880;DHT22;7010;48.200;16.332;2022-11-20T00:43:58;2.20;99.90
13880;DHT22;7010;48.200;16.332;2022-11-20T00:46:27;2.20;99.90
13880;DHT22;7010;48.200;16.332;2022-11-20T00:48:56;2.20;99.90
13880;DHT22;7010;48.200;16.332;2022-11-20T00:51:26;2.20;99.90
13880;DHT22;7010;48.200;16.332;2022-11-20T00:53:56;2.30;99.90
13880;DHT22;7010;48.200;16.332;2022-11-20T00:56:26;2.20;99.90
13880;DHT22;7010;48.200;16.332;2022-11-20T00:58:54;2.20;99.90
13880;DHT22;7010;48.200;16.332;2022-11-20T01:01:23;2.10;99.90
13880;DHT22;7010;48.200;16.332;2022-11-20T01:03:55;2.00;99.90
13880;DHT22;7010;48.200;16.332;2022-11-20T01:06:32;2.10;99.90
13880;DHT22;7010;48.200;16.332;2022-11-20T01:09:01;2.10;99.90
13880;DHT22;7010;48.200;16.332;2022-11-20T01:11:34;2.10;99.90
13880;DHT22;7010;48.200;16.332;2022-11-20T01:14:06;2.10;99.90
13880;DHT22;7010;48.200;16.332;2022-11-20T01:16:36;2.10;99.90
13880;DHT22;7010;48.200;16.332;2022-11-20T01:19:06;2.10;99.90
13880;DHT22;7010;48.200;16.332;2022-11-20T01:21:37;2.10;99.90
13880;DHT22;7010;48.200;16.332;2022-11-20T01:24:07;2.10;99.90
13880;DHT22;7010;48.200;16.332;2022-11-20T01:26:38;2.00;99.90
13880;DHT22;7010;48.200;16.332;2022-11-20T01:29:09;1.90;99.90
13880;DHT22;7010;48.200;16.332;2022-11-20T01:31:39;1.90;99.90
13880;DHT22;7010;48.200;16.332;2022-11-20T01:34:10;1.90;99.90
13880;DHT22;7010;48.200;16.332;2022-11-20T01:36:39;2.00;99.90
13880;DHT22;7010;48.200;16.332;2022-11-20T01:39:11;2.00;99.90
13880;DHT22;7010;48.200;16.332;2022-11-20T01:41:42;1.90;99.90
13880;DHT22;7010;48.200;16.332;2022-11-20T01:44:50;2.00;99.90
13880;DHT22;7010;48.200;16.332;2022-11-20T01:47:23;2.00;99.90
13880;DHT22;7010;48.200;16.332;2022-11-20T01:49:56;2.00;99.90
13880;DHT22;7010;48.200;16.332;2022-11-20T01:52:32;2.00;99.90
13880;DHT22;7010;48.200;16.332;2022-11-20T01:55:05;2.00;99.90
13880;DHT22;7010;48.200;16.332;2022-11-20T01:57:37;2.10;99.90
13880;DHT22;7010;48.200;16.332;2022-11-20T02:00:09;2.10;99.90
13880;DHT22;7010;48.200;16.332;2022-11-20T02:02:39;2.10;99.90
13880;DHT22;7010;48.200;16.332;2022-11-20T02:05:18;2.10;99.90
13880;DHT22;7010;48.200;16.332;2022-11-20T02:07:48;2.10;99.90
13880;DHT22;7010;48.200;16.332;2022-11-20T02:10:16;2.10;99.90
13880;DHT22;7010;48.200;16.332;2022-11-20T02:12:46;2.10;99.90
13880;DHT22;7010;48.200;16.332;2022-11-20T02:15:33;2.10;99.90
13880;DHT22;7010;48.200;16.332;2022-11-20T02:18:01;2.00;99.90
13880;DHT22;7010;48.200;16.332;2022-11-20T02:20:29;2.10;99.90
13880;DHT22;7010;48.200;16.332;2022-11-20T02:23:00;2.00;99.90
13880;DHT22;7010;48.200;16.332;2022-11-20T02:25:33;2.00;99.90
13880;DHT22;7010;48.200;16.332;2022-11-20T02:28:03;2.00;99.90
13880;DHT22;7010;48.200;16.332;2022-11-20T02:30:31;2.00;99.90
13880;DHT22;7010;48.200;16.332;2022-11-20T02:33:00;2.00;99.90
13880;DHT22;7010;48.200;16.332;2022-11-20T02:35:41;2.00;99.90
13880;DHT22;7010;48.200;16.332;2022-11-20T02:38:10;2.00;99.90
13880;DHT22;7010;48.200;16.332;2022-11-20T02:40:40;2.00;99.90
13880;DHT22;7010;48.200;16.332;2022-11-20T02:43:08;2.00;99.90
13880;DHT22;7010;48.200;16.332;2022-11-20T02:45:37;1.90;99.90
13880;DHT22;7010;48.200;16.332;2022-11-20T02:48:06;1.90;99.90
13880;DHT22;7010;48.200;16.332;2022-11-20T02:50:37;2.00;99.90
13880;DHT22;7010;48.200;16.332;2022-11-20T02:53:06;2.00;99.90
13880;DHT22;7010;48.200;16.332;2022-11-20T02:55:35;1.90;99.90
13880;DHT22;7010;48.200;16.332;2022-11-20T02:58:08;1.90;99.90
13880;DHT22;7010;48.200;16.332;2022-11-20T03:00:36;1.90;99.90
13880;DHT22;7010;48.200;16.332;2022-11-20T03:03:04;1.90;99.90
13880;DHT22;7010;48.200;16.332;2022-11-20T03:05:32;1.90;99.90
13880;DHT22;7010;48.200;16.332;2022-11-20T03:08:01;1.90;99.90
13880;DHT22;7010;48.200;16.332;2022-11-20T03:10:29;1.90;99.90
13880;DHT22;7010;48.200;16.332;2022-11-20T03:12:57;1.90;99.90
13880;DHT22;7010;48.200;16.332;2022-11-20T03:15:27;1.90;99.90
13880;DHT22;7010;48.200;16.332;2022-11-20T03:17:56;1.90;99.90
13880;DHT22;7010;48.200;16.332;2022-11-20T03:20:24;1.80;99.90
13880;DHT22;7010;48.200;16.332;2022-11-20T03:22:53;1.80;99.90
13880;DHT22;7010;48.200;16.332;2022-11-20T03:25:22;1.70;99.90
13880;DHT22;7010;48.200;16.332;2022-11-20T03:27:50;1.70;99.90
13880;DHT22;7010;48.200;16.332;2022-11-20T03:30:19;1.60;99.90
13880;DHT22;7010;48.200;16.332;2022-11-20T03:32:54;1.60;99.90
13880;DHT22;7010;48.200;16.332;2022-11-20T03:35:22;1.70;99.90
13880;DHT22;7010;48.200;16.332;2022-11-20T03:37:50;1.70;99.90
13880;DHT22;7010;48.200;16.332;2022-11-20T03:40:19;1.70;99.90
13880;DHT22;7010;48.200;16.332;2022-11-20T03:42:47;1.70;99.90
13880;DHT22;7010;48.200;16.332;2022-11-20T03:45:16;1.70;99.90
13880;DHT22;7010;48.200;16.332;2022-11-20T03:47:45;1.60;99.90
13880;DHT22;7010;48.200;16.332;2022-11-20T03:50:15;1.60;99.90
13880;DHT22;7010;48.200;16.332;2022-11-20T03:52:46;1.60;99.90
13880;DHT22;7010;48.200;16.332;2022-11-20T03:55:14;1.60;99.90
13880;DHT22;7010;48.200;16.332;2022-11-20T03:57:43;1.60;99.90
13880;DHT22;7010;48.200;16.332;2022-11-20T04:00:12;1.60;99.90
13880;DHT22;7010;48.200;16.332;2022-11-20T04:02:40;1.60;99.90
13880;DHT22;7010;48.200;16.332;2022-11-20T04:05:08;1.60;99.90
13880;DHT22;7010;48.200;16.332;2022-11-20T04:07:38;1.60;99.90
13880;DHT22;7010;48.200;16.332;2022-11-20T04:10:07;1.70;99.90
13880;DHT22;7010;48.200;16.332;2022-11-20T04:12:35;1.60;99.90
13880;DHT22;7010;48.200;16.332;2022-11-20T04:15:04;1.70;99.90
13880;DHT22;7010;48.200;16.332;2022-11-20T04:17:32;1.60;99.90
13880;DHT22;7010;48.200;16.332;2022-11-20T04:20:01;1.60;99.90
13880;DHT22;7010;48.200;16.332;2022-11-20T04:22:29;1.60;99.90
13880;DHT22;7010;48.200;16.332;2022-11-20T04:24:59;1.70;99.90
13880;DHT22;7010;48.200;16.332;2022-11-20T04:27:27;1.70;99.90
13880;DHT22;7010;48.200;16.332;2022-11-20T04:29:55;1.70;99.90
13880;DHT22;7010;48.200;16.332;2022-11-20T04:32:24;1.60;99.90
13880;DHT22;7010;48.200;16.332;2022-11-20T04:34:52;1.60;99.90
13880;DHT22;7010;48.200;16.332;2022-11-20T04:37:20;1.60;99.90
13880;DHT22;7010;48.200;16.332;2022-11-20T04:39:49;1.60;99.90
13880;DHT22;7010;48.200;16.332;2022-11-20T04:42:18;1.70;99.90
13880;DHT22;7010;48.200;16.332;2022-11-20T04:44:58;1.70;99.90
13880;DHT22;7010;48.200;16.332;2022-11-20T04:47:27;1.70;99.90
13880;DHT22;7010;48.200;16.332;2022-11-20T04:49:55;1.70;99.90
13880;DHT22;7010;48.200;16.332;2022-11-20T04:52:23;1.80;99.90
13880;DHT22;7010;48.200;16.332;2022-11-20T04:54:51;1.80;99.90
13880;DHT22;7010;48.200;16.332;2022-11-20T04:57:26;1.80;99.90
13880;DHT22;7010;48.200;16.332;2022-11-20T04:59:54;1.80;99.90
13880;DHT22;7010;48.200;16.332;2022-11-20T05:02:23;1.80;99.90
13880;DHT22;7010;48.200;16.332;2022-11-20T05:04:51;1.90;99.90
13880;DHT22;7010;48.200;16.332;2022-11-20T05:07:19;1.90;99.90
13880;DHT22;7010;48.200;16.332;2022-11-20T05:09:47;1.90;99.90
13880;DHT22;7010;48.200;16.332;2022-11-20T05:12:15;1.90;99.90
13880;DHT22;7010;48.200;16.332;2022-11-20T05:14:45;2.00;99.90
13880;DHT22;7010;48.200;16.332;2022-11-20T05:17:13;2.00;99.90
13880;DHT22;7010;48.200;16.332;2022-11-20T05:19:42;2.00;99.90
13880;DHT22;7010;48.200;16.332;2022-11-20T05:22:13;2.00;99.90
13880;DHT22;7010;48.200;16.332;2022-11-20T05:24:41;2.00;99.90
13880;DHT22;7010;48.200;16.332;2022-11-20T05:27:09;2.10;99.90
13880;DHT22;7010;48.200;16.332;2022-11-20T05:29:37;2.10;99.90
13880;DHT22;7010;48.200;16.332;2022-11-20T05:32:07;2.10;99.90
13880;DHT22;7010;48.200;16.332;2022-11-20T05:34:36;2.10;99.90
13880;DHT22;7010;48.200;16.332;2022-11-20T05:37:04;2.10;99.90
13880;DHT22;7010;48.200;16.332;2022-11-20T05:39:33;2.10;99.90
13880;DHT22;7010;48.200;16.332;2022-11-20T05:42:01;2.20;99.90
13880;DHT22;7010;48.200;16.332;2022-11-20T05:44:46;2.20;99.90
13880;DHT22;7010;48.200;16.332;2022-11-20T05:47:16;2.20;99.90
13880;DHT22;7010;48.200;16.332;2022-11-20T05:49:44;2.20;99.90
13880;DHT22;7010;48.200;16.332;2022-11-20T05:52:12;2.20;99.90
13880;DHT22;7010;48.200;16.332;2022-11-20T05:54:41;2.20;99.90
13880;DHT22;7010;48.200;16.332;2022-11-20T05:57:09;2.20;99.90
13880;DHT22;7010;48.200;16.332;2022-11-20T05:59:37;2.20;99.90
13880;DHT22;7010;48.200;16.332;2022-11-20T06:02:05;2.10;99.90
13880;DHT22;7010;48.200;16.332;2022-11-20T06:04:35;2.10;99.90
13880;DHT22;7010;48.200;16.332;2022-11-20T06:07:05;2.20;99.90
13880;DHT22;7010;48.200;16.332;2022-11-20T06:09:33;2.20;99.90
13880;DHT22;7010;48.200;16.332;2022-11-20T06:12:01;2.20;99.90
13880;DHT22;7010;48.200;16.332;2022-11-20T06:14:30;2.20;99.90
13880;DHT22;7010;48.200;16.332;2022-11-20T06:16:58;2.20;99.90
13880;DHT22;7010;48.200;16.332;2022-11-20T06:19:26;2.20;99.90
13880;DHT22;7010;48.200;16.332;2022-11-20T06:21:56;2.20;99.90
13880;DHT22;7010;48.200;16.332;2022-11-20T06:24:24;2.10;99.90
13880;DHT22;7010;48.200;16.332;2022-11-20T06:26:53;2.10;99.90
13880;DHT22;7010;48.200;16.332;2022-11-20T06:29:21;2.10;99.90
13880;DHT22;7010;48.200;16.332;2022-11-20T06:31:49;2.10;99.90
13880;DHT22;7010;48.200;16.332;2022-11-20T06:34:18;2.10;99.90
13880;DHT22;7010;48.200;16.332;2022-11-20T06:36:46;2.10;99.90
13880;DHT22;7010;48.200;16.332;2022-11-20T06:39:15;2.10;99.90
13880;DHT22;7010;48.200;16.332;2022-11-20T06:41:44;2.10;99.90
13880;DHT22;7010;48.200;16.332;2022-11-20T06:44:12;2.00;99.90
13880;DHT22;7010;48.200;16.332;2022-11-20T06:46:40;2.10;99.90
13880;DHT22;7010;48.200;16.332;2022-11-20T06:49:08;2.10;99.90
13880;DHT22;7010;48.200;16.332;2022-11-20T06:51:36;2.10;99.90
13880;DHT22;7010;48.200;16.332;2022-11-20T06:54:05;2.10;99.90
13880;DHT22;7010;48.200;16.332;2022-11-20T06:56:35;2.00;99.90
13880;DHT22;7010;48.200;16.332;2022-11-20T06:59:04;2.00;99.90
13880;DHT22;7010;48.200;16.332;2022-11-20T07:01:33;2.10;99.90
13880;DHT22;7010;48.200;16.332;2022-11-20T07:04:01;2.10;99.90
13880;DHT22;7010;48.200;16.332;2022-11-20T07:06:31;2.00;99.90
13880;DHT22;7010;48.200;16.332;2022-11-20T07:08:59;2.00;99.90
13880;DHT22;7010;48.200;16.332;2022-11-20T07:11:28;2.10;99.90
13880;DHT22;7010;48.200;16.332;2022-11-20T07:13:58;2.10;99.90
13880;DHT22;7010;48.200;16.332;2022-11-20T07:16:26;2.10;99.90
13880;DHT22;7010;48.200;16.332;2022-11-20T07:18:55;2.10;99.90
13880;DHT22;7010;48.200;16.332;2022-11-20T07:21:23;2.10;99.90
13880;DHT22;7010;48.200;16.332;2022-11-20T07:23:51;2.10;99.90
13880;DHT22;7010;48.200;16.332;2022-11-20T07:26:19;2.10;99.90
13880;DHT22;7010;48.200;16.332;2022-11-20T07:28:48;2.20;99.90
13880;DHT22;7010;48.200;16.332;2022-11-20T07:31:18;2.20;99.90
13880;DHT22;7010;48.200;16.332;2022-11-20T07:33:46;2.20;99.90
13880;DHT22;7010;48.200;16.332;2022-11-20T07:36:14;2.20;99.90
13880;DHT22;7010;48.200;16.332;2022-11-20T07:38:42;2.20;99.90
13880;DHT22;7010;48.200;16.332;2022-11-20T07:41:10;2.30;99.90
13880;DHT22;7010;48.200;16.332;2022-11-20T07:43:39;2.30;99.90
13880;DHT22;7010;48.200;16.332;2022-11-20T07:46:07;2.30;99.90
13880;DHT22;7010;48.200;16.332;2022-11-20T07:48:37;2.30;99.90
13880;DHT22;7010;48.200;16.332;2022-11-20T07:51:05;2.30;99.90
13880;DHT22;7010;48.200;16.332;2022-11-20T07:53:34;2.30;99.90
13880;DHT22;7010;48.200;16.332;2022-11-20T07:56:02;2.40;99.90
13880;DHT22;7010;48.200;16.332;2022-11-20T07:58:32;2.40;99.90
13880;DHT22;7010;48.200;16.332;2022-11-20T08:01:05;2.40;99.90
13880;DHT22;7010;48.200;16.332;2022-11-20T08:03:34;2.40;99.90
13880;DHT22;7010;48.200;16.332;2022-11-20T08:06:07;2.40;99.90
13880;DHT22;7010;48.200;16.332;2022-11-20T08:08:35;2.40;99.90
13880;DHT22;7010;48.200;16.332;2022-11-20T08:11:08;2.40;99.90
13880;DHT22;7010;48.200;16.332;2022-11-20T08:13:50;2.50;99.90
13880;DHT22;7010;48.200;16.332;2022-11-20T08:16:36;2.60;99.90
13880;DHT22;7010;48.200;16.332;2022-11-20T08:19:04;2.50;99.90
13880;DHT22;7010;48.200;16.332;2022-11-20T08:21:34;2.60;99.90
13880;DHT22;7010;48.200;16.332;2022-11-20T08:24:05;2.60;99.90
13880;DHT22;7010;48.200;16.332;2022-11-20T08:26:34;2.60;99.90
13880;DHT22;7010;48.200;16.332;2022-11-20T08:29:04;2.60;99.90
13880;DHT22;7010;48.200;16.332;2022-11-20T08:31:32;2.70;99.90
13880;DHT22;7010;48.200;16.332;2022-11-20T08:34:01;2.70;99.90
13880;DHT22;7010;48.200;16.332;2022-11-20T08:36:36;2.70;99.90
13880;DHT22;7010;48.200;16.332;2022-11-20T08:39:04;2.70;99.90
13880;DHT22;7010;48.200;16.332;2022-11-20T08:41:33;2.70;99.90
13880;DHT22;7010;48.200;16.332;2022-11-20T08:44:05;2.90;99.90
13880;DHT22;7010;48.200;16.332;2022-11-20T08:46:35;3.00;99.90
13880;DHT22;7010;48.200;16.332;2022-11-20T08:49:03;3.00;99.90
13880;DHT22;7010;48.200;16.332;2022-11-20T08:51:32;3.00;99.90
13880;DHT22;7010;48.200;16.332;2022-11-20T08:54:03;3.00;99.90
13880;DHT22;7010;48.200;16.332;2022-11-20T08:56:31;3.00;99.90
13880;DHT22;7010;48.200;16.332;2022-11-20T08:59:00;3.00;99.90
13880;DHT22;7010;48.200;16.332;2022-11-20T09:01:48;2.90;99.90
13880;DHT22;7010;48.200;16.332;2022-11-20T09:04:16;2.90;99.90
13880;DHT22;7010;48.200;16.332;2022-11-20T09:06:45;2.80;99.90
13880;DHT22;7010;48.200;16.332;2022-11-20T09:09:19;2.80;99.90
13880;DHT22;7010;48.200;16.332;2022-11-20T09:11:48;2.80;99.90
13880;DHT22;7010;48.200;16.332;2022-11-20T09:14:17;2.90;99.90
13880;DHT22;7010;48.200;16.332;2022-11-20T09:16:46;3.00;99.90
13880;DHT22;7010;48.200;16.332;2022-11-20T09:19:14;3.00;99.90
13880;DHT22;7010;48.200;16.332;2022-11-20T09:22:02;3.00;99.90
13880;DHT22;7010;48.200;16.332;2022-11-20T09:24:32;3.00;99.90
13880;DHT22;7010;48.200;16.332;2022-11-20T09:27:04;3.00;99.90
13880;DHT22;7010;48.200;16.332;2022-11-20T09:29:32;3.00;99.90
13880;DHT22;7010;48.200;16.332;2022-11-20T09:32:00;3.00;99.90
13880;DHT22;7010;48.200;16.332;2022-11-20T09:34:29;3.00;99.90
13880;DHT22;7010;48.200;16.332;2022-11-20T09:36:57;2.90;99.90
13880;DHT22;7010;48.200;16.332;2022-11-20T09:39:33;3.00;99.90
13880;DHT22;7010;48.200;16.332;2022-11-20T09:42:26;2.90;99.90
13880;DHT22;7010;48.200;16.332;2022-11-20T09:45:16;2.90;99.90
13880;DHT22;7010;48.200;16.332;2022-11-20T09:47:59;3.00;99.90
13880;DHT22;7010;48.200;16.332;2022-11-20T09:50:32;3.00;99.90
13880;DHT22;7010;48.200;16.332;2022-11-20T09:53:19;2.90;99.90
13880;DHT22;7010;48.200;16.332;2022-11-20T09:55:54;2.90;99.90
13880;DHT22;7010;48.200;16.332;2022-11-20T09:58:27;2.90;99.90
13880;DHT22;7010;48.200;16.332;2022-11-20T10:01:04;2.90;99.90
13880;DHT22;7010;48.200;16.332;2022-11-20T10:03:39;2.90;99.90
13880;DHT22;7010;48.200;16.332;2022-11-20T10:06:12;2.90;99.90
13880;DHT22;7010;48.200;16.332;2022-11-20T10:08:47;2.90;99.90
13880;DHT22;7010;48.200;16.332;2022-11-20T10:11:28;2.90;99.90
13880;DHT22;7010;48.200;16.332;2022-11-20T10:14:10;2.90;99.90
13880;DHT22;7010;48.200;16.332;2022-11-20T10:16:52;2.80;99.90
13880;DHT22;7010;48.200;16.332;2022-11-20T10:19:44;2.90;99.90
13880;DHT22;7010;48.200;16.332;2022-11-20T10:22:25;3.00;99.90
13880;DHT22;7010;48.200;16.332;2022-11-20T10:24:56;3.00;99.90
13880;DHT22;7010;48.200;16.332;2022-11-20T10:27:52;3.00;99.90
13880;DHT22;7010;48.200;16.332;2022-11-20T10:30:24;3.10;99.90
13880;DHT22;7010;48.200;16.332;2022-11-20T10:32:55;3.20;99.90
13880;DHT22;7010;48.200;16.332;2022-11-20T10:35:31;3.20;99.90
13880;DHT22;7010;48.200;16.332;2022-11-20T10:38:03;3.30;99.90
13880;DHT22;7010;48.200;16.332;2022-11-20T10:40:37;3.30;99.90
13880;DHT22;7010;48.200;16.332;2022-11-20T10:43:13;3.30;99.90
13880;DHT22;7010;48.200;16.332;2022-11-20T10:45:50;3.40;99.90
13880;DHT22;7010;48.200;16.332;2022-11-20T10:48:23;3.50;99.90
13880;DHT22;7010;48.200;16.332;2022-11-20T10:51:08;3.60;99.90
13880;DHT22;7010;48.200;16.332;2022-11-20T10:53:48;3.70;99.90
13880;DHT22;7010;48.200;16.332;2022-11-20T10:56:23;3.70;99.90
13880;DHT22;7010;48.200;16.332;2022-11-20T10:59:03;3.60;99.90
13880;DHT22;7010;48.200;16.332;2022-11-20T11:01:40;3.60;99.90
13880;DHT22;7010;48.200;16.332;2022-11-20T11:04:23;3.80;99.90
13880;DHT22;7010;48.200;16.332;2022-11-20T11:06:58;3.80;99.90
13880;DHT22;7010;48.200;16.332;2022-11-20T11:09:33;4.00;99.90
13880;DHT22;7010;48.200;16.332;2022-11-20T11:12:06;4.10;99.90
13880;DHT22;7010;48.200;16.332;2022-11-20T11:14:50;4.10;99.90
13880;DHT22;7010;48.200;16.332;2022-11-20T11:17:24;4.10;99.90
13880;DHT22;7010;48.200;16.332;2022-11-20T11:19:58;4.10;99.90
13880;DHT22;7010;48.200;16.332;2022-11-20T11:22:28;4.00;99.90
13880;DHT22;7010;48.200;16.332;2022-11-20T11:24:57;4.00;99.90
13880;DHT22;7010;48.200;16.332;2022-11-20T11:27:25;4.10;99.90
13880;DHT22;7010;48.200;16.332;2022-11-20T11:30:13;4.10;99.90
13880;DHT22;7010;48.200;16.332;2022-11-20T11:32:42;4.20;99.90
13880;DHT22;7010;48.200;16.332;2022-11-20T11:35:22;4.10;99.90
13880;DHT22;7010;48.200;16.332;2022-11-20T11:37:53;4.10;99.90
13880;DHT22;7010;48.200;16.332;2022-11-20T11:40:22;4.10;99.90
13880;DHT22;7010;48.200;16.332;2022-11-20T11:42:56;4.10;99.90
13880;DHT22;7010;48.200;16.332;2022-11-20T11:45:27;4.20;99.90
13880;DHT22;7010;48.200;16.332;2022-11-20T11:47:57;4.20;99.90
13880;DHT22;7010;48.200;16.332;2022-11-20T11:50:27;4.30;99.90
13880;DHT22;7010;48.200;16.332;2022-11-20T11:53:05;4.40;99.90
13880;DHT22;7010;48.200;16.332;2022-11-20T11:55:40;4.50;99.90
13880;DHT22;7010;48.200;16.332;2022-11-20T11:58:16;4.70;99.90
13880;DHT22;7010;48.200;16.332;2022-11-20T12:00:56;4.90;99.90
13880;DHT22;7010;48.200;16.332;2022-11-20T12:03:28;5.30;99.90
13880;DHT22;7010;48.200;16.332;2022-11-20T12:06:01;5.90;99.90
13880;DHT22;7010;48.200;16.332;2022-11-20T12:08:36;6.40;99.90
13880;DHT22;7010;48.200;16.332;2022-11-20T12:11:16;6.80;99.90
13880;DHT22;7010;48.200;16.332;2022-11-20T12:13:52;7.30;99.90
13880;DHT22;7010;48.200;16.332;2022-11-20T12:16:23;7.90;99.90
13880;DHT22;7010;48.200;16.332;2022-11-20T12:18:52;8.10;99.90
13880;DHT22;7010;48.200;16.332;2022-11-20T12:21:28;8.30;99.90
13880;DHT22;7010;48.200;16.332;2022-11-20T12:24:20;8.70;99.90
13880;DHT22;7010;48.200;16.332;2022-11-20T12:27:05;8.70;99.90
13880;DHT22;7010;48.200;16.332;2022-11-20T12:29:43;8.70;99.90
13880;DHT22;7010;48.200;16.332;2022-11-20T12:32:36;8.90;99.90
13880;DHT22;7010;48.200;16.332;2022-11-20T12:35:19;9.20;99.90
13880;DHT22;7010;48.200;16.332;2022-11-20T12:38:02;9.20;99.90
13880;DHT22;7010;48.200;16.332;2022-11-20T12:40:41;9.70;99.90
13880;DHT22;7010;48.200;16.332;2022-11-20T12:43:19;9.60;99.90
13880;DHT22;7010;48.200;16.332;2022-11-20T12:46:12;9.80;99.90
13880;DHT22;7010;48.200;16.332;2022-11-20T12:49:20;9.70;99.90
13880;DHT22;7010;48.200;16.332;2022-11-20T12:52:20;9.70;99.90
13880;DHT22;7010;48.200;16.332;2022-11-20T12:55:21;9.70;99.90
13880;DHT22;7010;48.200;16.332;2022-11-20T12:57:55;9.90;99.90
13880;DHT22;7010;48.200;16.332;2022-11-20T13:00:25;10.00;99.90
13880;DHT22;7010;48.200;16.332;2022-11-20T13:03:16;10.00;99.90
13880;DHT22;7010;48.200;16.332;2022-11-20T13:05:58;10.10;99.90
13880;DHT22;7010;48.200;16.332;2022-11-20T13:08:30;10.40;99.90
13880;DHT22;7010;48.200;16.332;2022-11-20T13:11:07;10.50;99.90
13880;DHT22;7010;48.200;16.332;2022-11-20T13:13:43;10.30;99.90
13880;DHT22;7010;48.200;16.332;2022-11-20T13:16:16;10.10;99.90
13880;DHT22;7010;48.200;16.332;2022-11-20T13:18:47;9.70;99.90
13880;DHT22;7010;48.200;16.332;2022-11-20T13:21:36;9.50;99.90
13880;DHT22;7010;48.200;16.332;2022-11-20T13:24:05;9.20;99.90
13880;DHT22;7010;48.200;16.332;2022-11-20T13:26:33;9.00;99.90
13880;DHT22;7010;48.200;16.332;2022-11-20T13:29:09;8.80;99.90
13880;DHT22;7010;48.200;16.332;2022-11-20T13:31:42;8.70;99.90
13880;DHT22;7010;48.200;16.332;2022-11-20T13:34:13;8.50;99.90
13880;DHT22;7010;48.200;16.332;2022-11-20T13:36:53;8.30;99.90
13880;DHT22;7010;48.200;16.332;2022-11-20T13:39:25;8.10;99.90
13880;DHT22;7010;48.200;16.332;2022-11-20T13:41:55;7.90;99.90
13880;DHT22;7010;48.200;16.332;2022-11-20T13:44:29;7.70;99.90
13880;DHT22;7010;48.200;16.332;2022-11-20T13:46:57;7.60;99.90
13880;DHT22;7010;48.200;16.332;2022-11-20T13:49:29;7.60;99.90
13880;DHT22;7010;48.200;16.332;2022-11-20T13:52:08;7.60;99.90
13880;DHT22;7010;48.200;16.332;2022-11-20T13:55:02;7.50;99.90
13880;DHT22;7010;48.200;16.332;2022-11-20T13:57:46;7.40;99.90
13880;DHT22;7010;48.200;16.332;2022-11-20T14:00:18;7.30;99.90
13880;DHT22;7010;48.200;16.332;2022-11-20T14:02:58;7.20;99.90
13880;DHT22;7010;48.200;16.332;2022-11-20T14:05:28;7.20;99.90
13880;DHT22;7010;48.200;16.332;2022-11-20T14:08:03;7.00;99.90
13880;DHT22;7010;48.200;16.332;2022-11-20T14:10:32;7.00;99.90
13880;DHT22;7010;48.200;16.332;2022-11-20T14:13:10;7.00;99.90
13880;DHT22;7010;48.200;16.332;2022-11-20T14:15:39;6.90;99.90
13880;DHT22;7010;48.200;16.332;2022-11-20T14:18:13;6.90;99.90
13880;DHT22;7010;48.200;16.332;2022-11-20T14:20:42;6.90;99.90
13880;DHT22;7010;48.200;16.332;2022-11-20T14:23:12;6.80;99.90
13880;DHT22;7010;48.200;16.332;2022-11-20T14:25:42;6.70;99.90
13880;DHT22;7010;48.200;16.332;2022-11-20T14:28:18;6.80;99.90
13880;DHT22;7010;48.200;16.332;2022-11-20T14:30:48;6.70;99.90
13880;DHT22;7010;48.200;16.332;2022-11-20T14:33:17;6.70;99.90
13880;DHT22;7010;48.200;16.332;2022-11-20T14:35:48;6.70;99.90
13880;DHT22;7010;48.200;16.332;2022-11-20T14:38:21;6.60;99.90
13880;DHT22;7010;48.200;16.332;2022-11-20T14:40:50;6.50;99.90
13880;DHT22;7010;48.200;16.332;2022-11-20T14:43:21;6.50;99.90
13880;DHT22;7010;48.200;16.332;2022-11-20T14:45:56;6.50;99.90
13880;DHT22;7010;48.200;16.332;2022-11-20T14:48:29;6.50;99.90
13880;DHT22;7010;48.200;16.332;2022-11-20T14:50:58;6.50;99.90
13880;DHT22;7010;48.200;16.332;2022-11-20T14:53:28;6.40;99.90
13880;DHT22;7010;48.200;16.332;2022-11-20T14:55:58;6.30;99.90
13880;DHT22;7010;48.200;16.332;2022-11-20T14:58:29;6.30;99.90
13880;DHT22;7010;48.200;16.332;2022-11-20T15:01:00;6.20;99.90
13880;DHT22;7010;48.200;16.332;2022-11-20T15:03:32;6.10;99.90
13880;DHT22;7010;48.200;16.332;2022-11-20T15:06:01;6.00;99.90
13880;DHT22;7010;48.200;16.332;2022-11-20T15:08:31;6.00;99.90
13880;DHT22;7010;48.200;16.332;2022-11-20T15:10:59;5.80;99.90
13880;DHT22;7010;48.200;16.332;2022-11-20T15:13:31;5.80;99.90
13880;DHT22;7010;48.200;16.332;2022-11-20T15:16:01;5.80;99.90
13880;DHT22;7010;48.200;16.332;2022-11-20T15:18:32;5.70;99.90
13880;DHT22;7010;48.200;16.332;2022-11-20T15:21:02;5.70;99.90
13880;DHT22;7010;48.200;16.332;2022-11-20T15:23:33;5.70;99.90
13880;DHT22;7010;48.200;16.332;2022-11-20T15:26:04;5.70;99.90
13880;DHT22;7010;48.200;16.332;2022-11-20T15:28:35;5.60;99.90
13880;DHT22;7010;48.200;16.332;2022-11-20T15:31:04;5.60;99.90
13880;DHT22;7010;48.200;16.332;2022-11-20T15:33:33;5.60;99.90
13880;DHT22;7010;48.200;16.332;2022-11-20T15:36:01;5.50;99.90
13880;DHT22;7010;48.200;16.332;2022-11-20T15:38:32;5.50;99.90
13880;DHT22;7010;48.200;16.332;2022-11-20T15:41:00;5.50;99.90
13880;DHT22;7010;48.200;16.332;2022-11-20T15:43:28;5.40;99.90
13880;DHT22;7010;48.200;16.332;2022-11-20T15:45:59;5.40;99.90
13880;DHT22;7010;48.200;16.332;2022-11-20T15:48:29;5.40;99.90
13880;DHT22;7010;48.200;16.332;2022-11-20T15:51:02;5.30;99.90
13880;DHT22;7010;48.200;16.332;2022-11-20T15:53:33;5.40;99.90
13880;DHT22;7010;48.200;16.332;2022-11-20T15:56:01;5.30;99.90
13880;DHT22;7010;48.200;16.332;2022-11-20T15:58:29;5.30;99.90
13880;DHT22;7010;48.200;16.332;2022-11-20T16:00:58;5.20;99.90
13880;DHT22;7010;48.200;16.332;2022-11-20T16:03:26;5.20;99.90
13880;DHT22;7010;48.200;16.332;2022-11-20T16:05:54;5.20;99.90
13880;DHT22;7010;48.200;16.332;2022-11-20T16:08:22;5.30;99.90
13880;DHT22;7010;48.200;16.332;2022-11-20T16:10:52;5.20;99.90
13880;DHT22;7010;48.200;16.332;2022-11-20T16:13:20;5.20;99.90
13880;DHT22;7010;48.200;16.332;2022-11-20T16:16:07;5.10;99.90